createdAt,value
2022-08-07T00:02:41.301Z,45.85
2022-08-07T00:05:04.047Z,45.77
2022-08-07T00:07:40.837Z,46.00
2022-08-07T00:10:26.360Z,46.45
2022-08-07T00:13:00.606Z,46.46
2022-08-07T00:15:38.485Z,46.30
2022-08-07T00:18:18.706Z,46.39
2022-08-07T00:20:49.398Z,46.39
2022-08-07T00:23:17.591Z,46.79
2022-08-07T00:25:45.901Z,46.71
2022-08-07T00:28:26.055Z,46.89
2022-08-07T00:31:01.904Z,46.92
2022-08-07T00:33:36.036Z,47.01
2022-08-07T00:36:04.464Z,46.98
2022-08-07T00:38:33.362Z,46.98
2022-08-07T00:41:01.615Z,47.24
2022-08-07T00:44:01.274Z,47.19
2022-08-07T00:46:17.469Z,47.17
2022-08-07T00:48:49.970Z,47.34
2022-08-07T00:51:19.676Z,47.58
2022-08-07T00:53:55.061Z,47.40
2022-08-07T00:56:30.140Z,47.70
2022-08-07T00:59:02.087Z,47.74
2022-08-07T01:01:30.114Z,47.87
2022-08-07T01:04:24.614Z,47.92
2022-08-07T01:06:53.821Z,47.91
2022-08-07T01:10:04.217Z,48.04
2022-08-07T01:12:29.610Z,48.08
2022-08-07T01:15:01.093Z,48.26
2022-08-07T01:17:29.710Z,48.39
2022-08-07T01:20:02.888Z,48.59
2022-08-07T01:22:33.545Z,48.40
2022-08-07T01:25:05.099Z,48.53
2022-08-07T01:27:51.254Z,48.48
2022-08-07T01:30:19.555Z,48.56
2022-08-07T01:32:54.981Z,48.74
2022-08-07T01:35:24.400Z,48.51
2022-08-07T01:37:54.832Z,48.88
2022-08-07T01:40:22.746Z,49.17
2022-08-07T01:42:58.803Z,48.99
2022-08-07T01:45:37.224Z,49.01
2022-08-07T01:48:20.437Z,49.13
2022-08-07T01:50:58.276Z,49.19
2022-08-07T01:54:12.619Z,49.42
2022-08-07T01:56:17.553Z,49.38
2022-08-07T01:58:49.937Z,49.58
2022-08-07T02:01:59.014Z,49.52
2022-08-07T02:04:10.917Z,49.57
2022-08-07T02:06:39.412Z,49.75
2022-08-07T02:09:11.690Z,49.82
2022-08-07T02:12:03.914Z,49.70
2022-08-07T02:14:40.411Z,49.53
2022-08-07T02:17:09.402Z,49.53
2022-08-07T02:20:05.177Z,49.51
2022-08-07T02:22:27.902Z,49.81
2022-08-07T02:24:57.367Z,49.99
2022-08-07T02:27:26.750Z,49.77
2022-08-07T02:30:03.599Z,50.11
2022-08-07T02:32:36.155Z,50.24
2022-08-07T02:35:09.220Z,50.10
2022-08-07T02:37:43.823Z,50.16
2022-08-07T02:40:30.871Z,50.24
2022-08-07T02:43:01.231Z,50.17
2022-08-07T02:45:58.769Z,50.45
2022-08-07T02:48:23.591Z,50.12
2022-08-07T02:50:51.950Z,50.33
2022-08-07T02:53:23.773Z,50.58
2022-08-07T02:56:03.568Z,50.73
2022-08-07T02:58:33.683Z,50.70
2022-08-07T03:01:01.983Z,50.72
2022-08-07T03:03:49.276Z,51.00
2022-08-07T03:06:26.279Z,51.05
2022-08-07T03:09:01.458Z,50.52
2022-08-07T03:11:32.943Z,50.85
2022-08-07T03:14:06.698Z,50.69
2022-08-07T03:16:34.782Z,50.71
2022-08-07T03:19:02.641Z,50.55
2022-08-07T03:21:33.400Z,50.59
2022-08-07T03:24:19.902Z,50.70
2022-08-07T03:26:58.200Z,50.72
2022-08-07T03:29:27.696Z,50.93
2022-08-07T03:31:55.786Z,50.85
2022-08-07T03:34:27.356Z,51.29
2022-08-07T03:36:57.356Z,51.39
2022-08-07T03:39:45.777Z,51.26
2022-08-07T03:42:15.515Z,51.19
2022-08-07T03:44:47.088Z,51.06
2022-08-07T03:47:22.740Z,51.49
2022-08-07T03:49:52.401Z,51.43
2022-08-07T03:52:22.830Z,51.41
2022-08-07T03:54:57.161Z,51.05
2022-08-07T03:58:33.528Z,52.10
2022-08-07T04:00:30.815Z,51.27
2022-08-07T04:03:04.345Z,51.18
2022-08-07T04:05:40.443Z,51.32
2022-08-07T04:08:11.583Z,51.57
2022-08-07T04:10:39.819Z,51.21
2022-08-07T04:13:15.506Z,51.20
2022-08-07T04:15:43.743Z,51.26
2022-08-07T04:18:58.078Z,51.53
2022-08-07T04:21:02.640Z,51.22
2022-08-07T04:23:43.947Z,51.46
2022-08-07T04:26:21.643Z,51.59
2022-08-07T04:28:51.400Z,51.38
2022-08-07T04:31:20.329Z,51.52
2022-08-07T04:34:16.898Z,51.74
2022-08-07T04:36:45.459Z,51.54
2022-08-07T04:39:17.648Z,51.31
2022-08-07T04:41:50.430Z,51.67
2022-08-07T04:44:20.213Z,51.84
2022-08-07T04:47:04.690Z,51.43
2022-08-07T04:49:57.555Z,51.68
2022-08-07T04:52:29.770Z,51.51
2022-08-07T04:55:00.824Z,51.51
2022-08-07T04:58:23.957Z,50.98
2022-08-07T05:00:30.352Z,51.21
2022-08-07T05:03:17.093Z,51.62
2022-08-07T05:05:57.432Z,51.17
2022-08-07T05:08:59.607Z,51.40
2022-08-07T05:11:58.027Z,51.21
2022-08-07T05:14:52.509Z,51.10
2022-08-07T05:17:12.374Z,51.07
2022-08-07T05:20:00.331Z,51.08
2022-08-07T05:22:28.199Z,51.12
2022-08-07T05:28:02.816Z,51.20
2022-08-07T05:30:12.832Z,51.02
2022-08-07T05:32:42.535Z,51.00
2022-08-07T05:35:12.068Z,51.00
2022-08-07T05:37:42.262Z,51.01
2022-08-07T05:40:18.245Z,50.91
2022-08-07T05:42:55.821Z,50.57
2022-08-07T05:45:46.285Z,50.42
2022-08-07T05:48:14.213Z,50.12
2022-08-07T05:50:42.910Z,49.93
2022-08-07T05:54:12.983Z,49.79
2022-08-07T05:56:02.006Z,49.26
2022-08-07T05:58:36.704Z,48.78
2022-08-07T06:01:05.976Z,47.82
2022-08-07T06:03:56.689Z,47.42
2022-08-07T06:06:29.858Z,46.85
2022-08-07T06:09:01.143Z,45.80
2022-08-07T06:11:32.712Z,44.84
2022-08-07T06:14:11.703Z,43.69
2022-08-07T06:16:50.300Z,42.68
2022-08-07T06:19:52.253Z,41.26
2022-08-07T06:22:22.658Z,39.92
2022-08-07T06:24:58.007Z,38.89
2022-08-07T06:27:43.983Z,38.16
2022-08-07T06:30:31.996Z,37.85
2022-08-07T06:33:03.813Z,37.07
2022-08-07T06:35:38.962Z,35.88
2022-08-07T06:38:10.001Z,34.47
2022-08-07T06:40:49.781Z,34.65
2022-08-07T06:43:21.391Z,33.18
2022-08-07T06:45:50.274Z,32.69
2022-08-07T06:48:24.802Z,32.03
2022-08-07T06:50:54.668Z,31.65
2022-08-07T06:55:27.154Z,30.70
2022-08-07T06:56:14.874Z,30.24
2022-08-07T07:00:16.879Z,29.62
2022-08-07T07:01:33.112Z,28.83
2022-08-07T07:04:27.736Z,28.08
2022-08-07T07:07:01.018Z,27.63
2022-08-07T07:09:31.111Z,27.69
2022-08-07T07:12:07.673Z,27.27
2022-08-07T07:14:41.029Z,26.76
2022-08-07T07:17:16.142Z,25.76
2022-08-07T07:19:56.263Z,24.25
2022-08-07T07:22:35.970Z,23.74
2022-08-07T07:26:32.211Z,23.35
2022-08-07T07:28:02.772Z,22.67
2022-08-07T07:30:39.621Z,21.63
2022-08-07T07:33:11.849Z,20.87
2022-08-07T07:35:54.383Z,21.43
2022-08-07T07:38:31.812Z,21.10
2022-08-07T07:41:02.556Z,20.50
2022-08-07T07:44:13.874Z,20.58
2022-08-07T07:46:38.175Z,20.57
2022-08-07T07:49:08.964Z,20.08
2022-08-07T07:51:59.600Z,19.79
2022-08-07T07:54:29.343Z,19.17
2022-08-07T07:56:57.577Z,19.32
2022-08-07T07:59:52.655Z,18.55
2022-08-07T08:02:34.044Z,17.81
2022-08-07T08:05:03.652Z,18.04
2022-08-07T08:07:36.002Z,17.13
2022-08-07T08:10:15.004Z,17.20
2022-08-07T08:13:00.575Z,16.28
2022-08-07T08:15:58.085Z,17.08
2022-08-07T08:18:23.318Z,15.42
2022-08-07T08:20:54.072Z,15.45
2022-08-07T08:23:39.434Z,15.71
2022-08-07T08:26:26.848Z,14.76
2022-08-07T08:28:55.820Z,14.88
2022-08-07T08:31:58.309Z,14.44
2022-08-07T08:34:26.658Z,13.93
2022-08-07T08:36:57.557Z,13.42
2022-08-07T08:39:26.492Z,13.61
2022-08-07T08:42:15.107Z,14.17
2022-08-07T08:44:54.217Z,13.54
2022-08-07T08:47:25.037Z,13.67
2022-08-07T08:50:05.205Z,12.89
2022-08-07T08:52:36.013Z,12.97
2022-08-07T08:55:21.158Z,12.74
2022-08-07T08:58:08.638Z,12.45
2022-08-07T09:00:48.647Z,12.70
2022-08-07T09:03:47.345Z,12.00
2022-08-07T09:06:23.141Z,12.44
2022-08-07T09:08:57.895Z,11.35
2022-08-07T09:11:43.467Z,11.22
2022-08-07T09:14:20.788Z,10.90
2022-08-07T09:17:01.507Z,11.16
2022-08-07T09:19:52.880Z,11.58
2022-08-07T09:24:53.610Z,11.12
2022-08-07T09:25:40.226Z,11.63
2022-08-07T09:30:00.490Z,11.39
2022-08-07T09:31:01.157Z,11.06
2022-08-07T09:33:57.563Z,10.86
2022-08-07T09:36:35.310Z,10.46
2022-08-07T09:39:27.429Z,10.82
2022-08-07T09:42:05.734Z,10.87
2022-08-07T09:45:03.470Z,10.12
2022-08-07T09:47:59.643Z,9.21
2022-08-07T09:50:31.570Z,9.40
2022-08-07T09:53:01.631Z,9.26
2022-08-07T09:56:04.012Z,9.74
2022-08-07T09:58:32.220Z,9.79
2022-08-07T10:01:14.938Z,9.26
2022-08-07T10:04:14.220Z,9.33
2022-08-07T10:07:01.181Z,8.75
2022-08-07T10:10:00.640Z,8.82
2022-08-07T10:13:00.644Z,8.72
2022-08-07T10:15:47.766Z,8.84
2022-08-07T10:18:31.495Z,8.80
2022-08-07T10:22:12.261Z,8.66
2022-08-07T10:24:33.473Z,8.23
2022-08-07T10:27:19.051Z,7.66
2022-08-07T10:30:00.676Z,7.70
2022-08-07T10:32:53.753Z,7.77
2022-08-07T10:35:57.501Z,7.36
2022-08-07T10:38:35.881Z,7.28
2022-08-07T10:41:52.166Z,7.65
2022-08-07T10:44:09.613Z,7.95
2022-08-07T10:46:41.157Z,7.73
2022-08-07T10:49:14.637Z,7.72
2022-08-07T10:52:13.015Z,7.54
2022-08-07T10:54:53.449Z,7.15
2022-08-07T10:57:38.912Z,7.35
2022-08-07T11:00:09.648Z,6.56
2022-08-07T11:03:00.216Z,6.79
2022-08-07T11:05:35.980Z,6.44
2022-08-07T11:08:30.370Z,6.90
2022-08-07T11:11:02.966Z,7.13
2022-08-07T11:14:42.378Z,6.27
2022-08-07T11:16:30.726Z,6.24
2022-08-07T11:19:03.858Z,6.67
2022-08-07T11:21:40.765Z,7.00
2022-08-07T11:24:14.535Z,7.43
2022-08-07T11:26:49.960Z,7.70
2022-08-07T11:29:41.947Z,7.80
2022-08-07T11:32:12.126Z,7.91
2022-08-07T11:34:43.369Z,7.89
2022-08-07T11:37:14.379Z,8.65
2022-08-07T11:40:00.805Z,8.63
2022-08-07T11:42:41.204Z,9.13
2022-08-07T11:45:14.624Z,10.00
2022-08-07T11:47:59.115Z,10.30
2022-08-07T11:50:36.846Z,11.11
2022-08-07T11:53:18.185Z,11.75
2022-08-07T11:56:18.470Z,13.02
2022-08-07T11:59:01.369Z,13.82
2022-08-07T12:01:59.644Z,13.95
2022-08-07T12:04:44.286Z,14.11
2022-08-07T12:07:20.175Z,14.69
2022-08-07T12:09:57.490Z,15.07
2022-08-07T12:12:34.719Z,15.44
2022-08-07T12:15:08.255Z,16.55
2022-08-07T12:17:59.011Z,16.86
2022-08-07T12:20:32.453Z,16.75
2022-08-07T12:23:21.613Z,16.45
2022-08-07T12:26:23.495Z,16.25
2022-08-07T12:29:00.745Z,16.61
2022-08-07T12:31:52.817Z,16.81
2022-08-07T12:34:26.001Z,16.72
2022-08-07T12:36:54.929Z,17.35
2022-08-07T12:39:43.853Z,16.62
2022-08-07T12:42:13.156Z,17.26
2022-08-07T12:44:44.951Z,17.87
2022-08-07T12:47:27.185Z,17.36
2022-08-07T12:50:05.203Z,17.58
2022-08-07T12:52:55.475Z,17.32
2022-08-07T12:55:41.370Z,18.86
2022-08-07T12:58:17.294Z,18.33
2022-08-07T13:01:01.771Z,18.47
2022-08-07T13:04:00.508Z,18.53
2022-08-07T13:06:54.220Z,18.07
2022-08-07T13:10:19.957Z,18.45
2022-08-07T13:12:32.912Z,18.73
2022-08-07T13:15:08.000Z,18.74
2022-08-07T13:17:42.389Z,18.78
2022-08-07T13:20:16.607Z,18.50
2022-08-07T13:22:53.454Z,18.92
2022-08-07T13:25:29.205Z,18.65
2022-08-07T13:34:31.224Z,18.91
2022-08-07T13:36:05.844Z,19.21
2022-08-07T13:38:39.626Z,19.15
2022-08-07T13:41:13.705Z,19.21
2022-08-07T13:43:43.046Z,18.89
2022-08-07T13:46:25.499Z,18.64
2022-08-07T13:48:58.550Z,18.76
2022-08-07T13:52:22.999Z,18.92
2022-08-07T13:54:23.758Z,19.57
2022-08-07T13:56:55.843Z,19.32
2022-08-07T13:59:27.450Z,19.28
2022-08-07T14:02:04.542Z,19.27
2022-08-07T14:04:35.672Z,19.72
2022-08-07T14:07:09.487Z,19.40
2022-08-07T14:10:00.626Z,19.51
2022-08-07T14:12:32.362Z,19.69
2022-08-07T14:15:07.216Z,20.34
2022-08-07T14:18:23.892Z,19.71
2022-08-07T14:20:43.496Z,20.04
2022-08-07T14:23:59.483Z,19.85
2022-08-07T14:26:28.118Z,20.01
2022-08-07T14:29:04.343Z,20.33
2022-08-07T14:31:42.814Z,19.89
2022-08-07T14:34:11.343Z,19.70
2022-08-07T14:36:56.421Z,19.61
2022-08-07T14:40:16.829Z,19.40
2022-08-07T14:42:20.394Z,19.60
2022-08-07T14:44:53.503Z,19.96
2022-08-07T14:47:23.194Z,19.53
2022-08-07T14:49:58.316Z,19.86
2022-08-07T14:52:28.758Z,19.95
2022-08-07T14:54:58.617Z,19.68
2022-08-07T14:57:55.047Z,19.72
2022-08-07T15:03:19.268Z,19.76
2022-08-07T15:05:55.123Z,19.62
2022-08-07T15:08:33.739Z,19.57
2022-08-07T15:11:05.448Z,19.56
2022-08-07T15:13:35.830Z,19.91
2022-08-07T15:16:11.477Z,19.88
2022-08-07T15:18:43.911Z,19.96
2022-08-07T15:21:44.227Z,19.94
2022-08-07T15:25:15.196Z,19.86
2022-08-07T15:26:59.412Z,19.65
2022-08-07T15:30:09.030Z,19.72
2022-08-07T15:35:14.513Z,19.94
2022-08-07T15:40:34.220Z,20.09
2022-08-07T15:43:52.798Z,20.52
2022-08-07T15:46:31.582Z,20.53
2022-08-07T15:49:14.263Z,20.73
2022-08-07T15:54:27.032Z,20.28
2022-08-07T15:56:55.369Z,20.32
2022-08-07T15:59:40.095Z,19.78
2022-08-07T16:02:15.223Z,20.35
2022-08-07T16:04:44.165Z,20.04
2022-08-07T16:08:32.551Z,20.73
2022-08-07T16:10:09.519Z,20.06
2022-08-07T16:13:00.958Z,19.82
2022-08-07T16:15:57.510Z,20.07
2022-08-07T16:18:49.524Z,20.09
2022-08-07T16:21:44.492Z,20.14
2022-08-07T16:24:33.987Z,20.56
2022-08-07T16:27:17.992Z,20.39
2022-08-07T16:30:30.946Z,20.01
2022-08-07T16:32:59.991Z,20.91
2022-08-07T16:35:56.739Z,20.88
2022-08-07T16:39:00.151Z,20.64
2022-08-07T16:42:02.402Z,20.68
2022-08-07T16:45:14.730Z,20.51
2022-08-07T16:48:02.859Z,20.83
2022-08-07T16:50:52.549Z,21.30
2022-08-07T16:54:01.334Z,20.72
2022-08-07T16:56:37.280Z,20.42
2022-08-07T16:59:11.164Z,21.39
2022-08-07T17:01:50.472Z,21.11
2022-08-07T17:04:31.439Z,20.80
2022-08-07T17:07:08.882Z,21.47
2022-08-07T17:10:08.153Z,21.00
2022-08-07T17:12:37.816Z,21.29
2022-08-07T17:15:16.289Z,21.81
2022-08-07T17:17:50.201Z,21.92
2022-08-07T17:20:30.089Z,21.90
2022-08-07T17:23:01.496Z,21.70
2022-08-07T17:25:51.803Z,22.21
2022-08-07T17:28:24.328Z,21.72
2022-08-07T17:30:58.393Z,22.60
2022-08-07T17:34:09.337Z,22.18
2022-08-07T17:36:20.035Z,23.08
2022-08-07T17:38:55.338Z,22.81
2022-08-07T17:42:04.379Z,23.10
2022-08-07T17:44:33.769Z,22.73
2022-08-07T17:47:17.070Z,23.15
2022-08-07T17:50:00.277Z,23.11
2022-08-07T17:52:39.783Z,23.71
2022-08-07T17:55:12.621Z,23.53
2022-08-07T17:57:58.310Z,23.58
2022-08-07T18:00:34.232Z,23.79
2022-08-07T18:03:18.565Z,23.77
2022-08-07T18:06:03.188Z,23.95
2022-08-07T18:09:01.196Z,23.89
2022-08-07T18:12:17.384Z,24.12
2022-08-07T18:14:25.109Z,24.38
2022-08-07T18:16:58.084Z,24.67
2022-08-07T18:21:07.323Z,24.76
2022-08-07T18:22:26.394Z,24.90
2022-08-07T18:25:01.672Z,25.00
2022-08-07T18:28:09.428Z,25.29
2022-08-07T18:30:40.180Z,25.22
2022-08-07T18:33:39.114Z,25.86
2022-08-07T18:36:33.028Z,25.73
2022-08-07T18:40:09.060Z,25.70
2022-08-07T18:42:16.909Z,26.19
2022-08-07T18:48:01.420Z,26.34
2022-08-07T18:50:45.382Z,26.63
2022-08-07T18:53:16.341Z,26.48
2022-08-07T18:55:55.867Z,26.64
2022-08-07T18:58:39.262Z,26.76
2022-08-07T19:02:18.920Z,26.38
2022-08-07T19:04:09.540Z,27.03
2022-08-07T19:06:49.413Z,27.25
2022-08-07T19:09:54.649Z,27.41
2022-08-07T19:12:15.573Z,27.31
2022-08-07T19:14:59.662Z,27.56
2022-08-07T19:17:55.843Z,27.50
2022-08-07T19:20:30.581Z,27.51
2022-08-07T19:23:18.465Z,27.87
2022-08-07T19:26:25.248Z,27.82
2022-08-07T19:30:56.848Z,28.21
2022-08-07T19:32:02.395Z,27.79
2022-08-07T19:34:34.191Z,28.41
2022-08-07T19:37:10.018Z,28.57
2022-08-07T19:39:57.701Z,28.38
2022-08-07T19:42:40.478Z,28.66
2022-08-07T19:45:13.314Z,28.81
2022-08-07T19:48:05.953Z,28.81
2022-08-07T19:50:53.258Z,29.02
2022-08-07T19:54:33.108Z,28.95
2022-08-07T19:57:56.728Z,29.55
2022-08-07T19:58:59.225Z,29.48
2022-08-07T20:01:52.989Z,29.76
2022-08-07T20:04:31.417Z,29.62
2022-08-07T20:07:00.767Z,30.01
2022-08-07T20:10:36.312Z,30.01
2022-08-07T20:12:31.528Z,30.14
2022-08-07T20:15:00.961Z,29.94
2022-08-07T20:17:33.103Z,30.39
2022-08-07T20:20:09.422Z,30.49
2022-08-07T20:22:40.925Z,30.88
2022-08-07T20:25:12.946Z,30.90
2022-08-07T20:27:54.143Z,31.32
2022-08-07T20:30:31.592Z,31.16
2022-08-07T20:33:00.110Z,31.55
2022-08-07T20:35:34.573Z,31.88
2022-08-07T20:38:08.523Z,32.28
2022-08-07T20:40:40.817Z,32.40
2022-08-07T20:43:14.875Z,32.08
2022-08-07T20:46:24.881Z,32.22
2022-08-07T20:48:58.058Z,32.32
2022-08-07T20:51:31.367Z,32.89
2022-08-07T20:54:08.533Z,32.80
2022-08-07T20:56:46.255Z,33.18
2022-08-07T21:00:04.162Z,33.30
2022-08-07T21:02:08.373Z,33.55
2022-08-07T21:04:54.569Z,33.46
2022-08-07T21:07:26.202Z,33.54
2022-08-07T21:09:59.282Z,33.77
2022-08-07T21:12:31.049Z,34.42
2022-08-07T21:15:01.363Z,34.04
2022-08-07T21:18:20.582Z,34.63
2022-08-07T21:20:30.400Z,34.34
2022-08-07T21:23:08.682Z,34.63
2022-08-07T21:25:56.605Z,34.83
2022-08-07T21:28:48.625Z,35.00
2022-08-07T21:31:49.752Z,35.11
2022-08-07T21:34:14.212Z,35.05
2022-08-07T21:36:51.116Z,35.52
2022-08-07T21:39:47.275Z,35.50
2022-08-07T21:42:41.739Z,35.73
2022-08-07T21:46:05.152Z,35.98
2022-08-07T21:48:02.763Z,35.89
2022-08-07T21:50:36.171Z,36.12
2022-08-07T21:53:08.597Z,36.12
2022-08-07T21:55:46.952Z,36.14
2022-08-07T21:58:32.143Z,36.34
2022-08-07T22:01:01.887Z,36.78
2022-08-07T22:03:32.077Z,36.30
2022-08-07T22:06:03.473Z,36.32
2022-08-07T22:08:35.356Z,36.68
2022-08-07T22:11:05.337Z,36.68
2022-08-07T22:13:50.154Z,36.65
2022-08-07T22:16:40.196Z,37.10
2022-08-07T22:19:18.089Z,37.17
2022-08-07T22:22:21.014Z,37.23
2022-08-07T22:25:03.033Z,37.61
2022-08-07T22:28:04.983Z,37.53
2022-08-07T22:30:27.355Z,37.58
2022-08-07T22:33:04.791Z,37.92
2022-08-07T22:35:40.498Z,37.76
2022-08-07T22:38:25.996Z,37.79
2022-08-07T22:40:59.943Z,38.09
2022-08-07T22:43:34.074Z,38.34
2022-08-07T22:47:02.190Z,38.34
2022-08-07T22:49:54.337Z,38.68
2022-08-07T22:52:45.902Z,38.67
2022-08-07T22:55:50.589Z,38.67
2022-08-07T22:58:50.546Z,38.76
2022-08-07T23:01:58.958Z,38.93
2022-08-07T23:04:56.677Z,39.12
2022-08-07T23:07:41.619Z,39.11
2022-08-07T23:10:37.677Z,39.21
2022-08-07T23:13:49.266Z,39.31
2022-08-07T23:16:48.295Z,39.33
2022-08-07T23:19:51.819Z,39.54
2022-08-07T23:22:27.959Z,39.72
2022-08-07T23:25:04.439Z,40.07
2022-08-07T23:28:21.156Z,40.18
2022-08-07T23:30:42.517Z,40.21
2022-08-07T23:34:35.551Z,40.52
2022-08-07T23:36:29.170Z,40.35
2022-08-07T23:39:08.336Z,40.77
2022-08-07T23:42:05.135Z,40.83
2022-08-07T23:45:15.314Z,40.74
2022-08-07T23:48:08.055Z,41.31
2022-08-07T23:50:38.285Z,41.35
2022-08-07T23:53:17.331Z,40.97
2022-08-07T23:55:55.791Z,41.45
2022-08-07T23:58:27.580Z,41.45
